createdAt,value
2018-08-03T20:04:55.973Z,12.60
2018-08-03T20:07:24.555Z,14.00
2018-08-03T20:13:08.829Z,12.40
2018-08-03T20:15:37.482Z,12.00
2018-08-03T20:18:06.063Z,11.83
2018-08-03T20:20:37.055Z,15.80
2018-08-03T20:23:05.637Z,14.67
2018-08-03T20:25:34.142Z,11.80
2018-08-03T20:28:02.707Z,15.43
2018-08-03T20:30:31.261Z,12.87
2018-08-03T20:32:59.772Z,13.93
2018-08-03T20:35:28.267Z,13.33
2018-08-03T20:37:58.655Z,13.13
2018-08-03T20:40:27.194Z,15.00
2018-08-03T20:42:55.758Z,12.47
2018-08-03T20:45:24.443Z,13.83
2018-08-03T20:47:53.709Z,13.40
2018-08-03T20:50:22.388Z,12.90
2018-08-03T20:52:50.992Z,13.67
2018-08-03T20:55:19.597Z,13.70
2018-08-03T20:57:48.193Z,13.10
2018-08-03T21:00:16.752Z,12.13
2018-08-03T21:02:45.315Z,13.47
2018-08-03T21:05:13.878Z,13.57
2018-08-03T21:07:42.410Z,13.83
2018-08-03T21:10:10.949Z,13.73
2018-08-03T21:12:39.557Z,14.33
2018-08-03T21:15:08.850Z,18.17
2018-08-03T21:17:37.446Z,13.93
2018-08-03T21:20:06.942Z,14.70
2018-08-03T21:22:35.450Z,14.10
2018-08-03T21:25:04.282Z,13.90
2018-08-03T21:27:33.282Z,14.50
2018-08-03T21:30:01.851Z,13.63
2018-08-03T21:32:30.402Z,15.37
2018-08-03T21:34:58.940Z,15.13
2018-08-03T21:37:27.534Z,15.90
2018-08-03T21:39:55.682Z,15.83
2018-08-03T21:42:24.194Z,15.80
2018-08-03T21:44:52.764Z,16.00
2018-08-03T21:50:24.815Z,15.73
2018-08-03T21:52:53.424Z,15.50
2018-08-03T21:55:21.850Z,16.77
2018-08-03T21:57:50.378Z,16.57
2018-08-03T22:00:20.978Z,16.23
2018-08-03T22:02:49.839Z,19.00
2018-08-03T22:05:18.392Z,15.70
2018-08-03T22:07:47.362Z,16.30
2018-08-03T22:10:16.018Z,16.73
2018-08-03T22:12:44.526Z,15.40
2018-08-03T22:15:13.041Z,17.13
2018-08-03T22:17:41.560Z,17.60
2018-08-03T22:20:10.072Z,15.57
2018-08-03T22:22:38.577Z,16.20
2018-08-03T22:25:07.175Z,17.73
2018-08-03T22:27:35.689Z,15.67
2018-08-03T22:30:04.876Z,16.53
2018-08-03T22:32:33.432Z,22.00
2018-08-03T22:35:01.904Z,16.10
2018-08-03T22:37:30.428Z,16.97
2018-08-03T22:39:58.886Z,17.23
2018-08-03T22:42:27.359Z,15.57
2018-08-03T22:44:55.891Z,15.57
2018-08-03T22:47:24.359Z,17.57
2018-08-03T22:49:52.973Z,16.30
2018-08-03T22:52:21.423Z,16.87
2018-08-03T22:54:49.933Z,17.60
2018-08-03T22:57:18.415Z,15.63
2018-08-03T22:59:46.941Z,16.23
2018-08-03T23:02:15.457Z,17.43
2018-08-03T23:04:43.994Z,17.80
2018-08-03T23:07:12.495Z,17.67
2018-08-03T23:09:40.997Z,17.43
2018-08-03T23:12:09.547Z,18.90
2018-08-03T23:14:38.055Z,16.17
2018-08-03T23:17:06.590Z,17.17
2018-08-03T23:19:35.099Z,16.23
2018-08-03T23:22:03.651Z,16.33
2018-08-03T23:24:31.821Z,16.93
2018-08-03T23:27:00.363Z,19.93
2018-08-03T23:29:28.868Z,16.87
2018-08-03T23:31:57.367Z,17.13
2018-08-03T23:34:25.551Z,19.07
2018-08-03T23:36:54.067Z,17.40
2018-08-03T23:39:22.563Z,19.77
2018-08-03T23:41:51.039Z,17.50
2018-08-03T23:44:19.539Z,17.70
2018-08-03T23:46:48.035Z,16.93
2018-08-03T23:49:16.519Z,17.03
2018-08-03T23:51:45.006Z,16.63
2018-08-03T23:54:13.545Z,16.50
2018-08-03T23:56:42.083Z,17.77
2018-08-03T23:59:10.583Z,17.30
